Terminal Aerodrome Forecast
Issued by NWS

Current Version | Previous Version | Graphics & Text | Print | Product List | Glossary On
Versions: 1 2 3 4 5 6 7 8 9 10 11 12 13 14 15 16 17 18 19 20 21 22 23
294
FTUS41 KPBZ 281739
TAFHLG
TAF
KHLG 281739Z 2818/2918 15006KT P6SM BKN040
     FM282200 10007KT P6SM BKN100
     FM282300 09006KT P6SM VCSH BKN070
     FM290500 07005KT P6SM VCSH BKN020=

USA.gov is the U.S. government's official web portal to all federal, state and local government web resources and services.